createdAt,value
2017-09-05T00:00:53.835Z,20.25
2017-09-05T00:01:53.822Z,20.25
2017-09-05T00:02:53.816Z,20.38
2017-09-05T00:03:53.799Z,20.33
2017-09-05T00:04:53.790Z,20.33
2017-09-05T00:05:53.771Z,20.31
2017-09-05T00:06:53.762Z,20.31
2017-09-05T00:07:53.750Z,20.33
2017-09-05T00:08:53.736Z,20.33
2017-09-05T00:09:53.724Z,20.31
2017-09-05T00:10:53.708Z,20.28
2017-09-05T00:11:53.698Z,20.28
2017-09-05T00:12:53.688Z,20.28
2017-09-05T00:13:53.673Z,20.25
2017-09-05T00:14:53.663Z,20.33
2017-09-05T00:15:53.644Z,20.33
2017-09-05T00:16:53.638Z,20.25
2017-09-05T00:17:53.624Z,20.28
2017-09-05T00:18:53.612Z,20.31
2017-09-05T00:19:53.598Z,20.23
2017-09-05T00:20:53.588Z,20.31
2017-09-05T00:21:53.572Z,20.21
2017-09-05T00:22:53.563Z,20.30
2017-09-05T00:23:53.550Z,20.28
2017-09-05T00:24:53.537Z,20.20
2017-09-05T00:25:53.521Z,20.28
2017-09-05T00:26:53.512Z,20.31
2017-09-05T00:27:53.496Z,20.27
2017-09-05T00:28:53.486Z,20.30
2017-09-05T00:29:53.476Z,20.23
2017-09-05T00:30:53.460Z,20.25
2017-09-05T00:31:53.451Z,20.25
2017-09-05T00:32:53.435Z,20.25
2017-09-05T00:33:53.422Z,20.28
2017-09-05T00:34:53.410Z,20.25
2017-09-05T00:35:53.399Z,20.27
2017-09-05T00:36:53.389Z,20.28
2017-09-05T00:37:53.373Z,20.18
2017-09-05T00:38:53.363Z,20.24
2017-09-05T00:39:53.357Z,20.28
2017-09-05T00:40:53.342Z,20.25
2017-09-05T00:41:53.325Z,20.23
2017-09-05T00:42:53.312Z,20.27
2017-09-05T00:43:53.299Z,20.25
2017-09-05T00:44:53.286Z,20.25
2017-09-05T00:45:53.279Z,20.25
2017-09-05T00:46:53.263Z,20.25
2017-09-05T00:47:53.261Z,20.30
2017-09-05T00:48:53.238Z,20.16
2017-09-05T00:49:53.219Z,20.21
2017-09-05T00:50:53.213Z,20.15
2017-09-05T00:51:53.201Z,20.20
2017-09-05T00:52:53.187Z,20.18
2017-09-05T00:53:53.174Z,20.13
2017-09-05T00:54:53.161Z,20.16
2017-09-05T00:55:53.145Z,20.23
2017-09-05T00:56:53.135Z,20.23
2017-09-05T00:57:53.123Z,20.27
2017-09-05T00:58:53.114Z,20.16
2017-09-05T00:59:53.101Z,20.23
2017-09-05T01:00:53.085Z,20.16
2017-09-05T01:01:53.069Z,20.27
2017-09-05T01:02:53.062Z,20.18
2017-09-05T01:03:53.049Z,20.18
2017-09-05T01:04:53.037Z,20.25
2017-09-05T01:05:53.024Z,20.21
2017-09-05T01:06:53.011Z,20.30
2017-09-05T01:07:52.998Z,20.25
2017-09-05T01:08:52.988Z,20.25
2017-09-05T01:09:52.977Z,20.25
2017-09-05T01:10:52.963Z,20.27
2017-09-05T01:11:52.950Z,20.28
2017-09-05T01:12:52.934Z,20.31
2017-09-05T01:13:52.921Z,20.34
2017-09-05T01:14:52.909Z,20.34
2017-09-05T01:15:52.898Z,20.31
2017-09-05T01:16:52.889Z,20.38
2017-09-05T01:17:52.873Z,20.35
2017-09-05T01:18:52.864Z,20.35
2017-09-05T01:19:52.851Z,20.35
2017-09-05T01:20:52.838Z,20.39
2017-09-05T01:21:52.825Z,20.33
2017-09-05T01:22:52.812Z,20.35
2017-09-05T01:23:52.799Z,20.39
2017-09-05T01:24:52.789Z,20.34
2017-09-05T01:25:52.773Z,20.35
2017-09-05T01:26:52.758Z,20.35
2017-09-05T01:27:52.751Z,20.38
2017-09-05T01:28:52.745Z,20.34
2017-09-05T01:29:52.732Z,20.34
2017-09-05T01:30:52.719Z,20.34
2017-09-05T01:31:52.697Z,20.38
2017-09-05T01:32:52.684Z,20.33
2017-09-05T01:33:52.671Z,20.30
2017-09-05T01:34:52.662Z,20.35
2017-09-05T01:35:52.649Z,20.34
2017-09-05T01:36:52.644Z,20.33
2017-09-05T01:37:52.623Z,20.38
2017-09-05T01:38:52.613Z,20.31
2017-09-05T01:39:52.602Z,20.33
2017-09-05T01:40:52.589Z,20.30
2017-09-05T01:41:52.580Z,20.31
2017-09-05T01:42:52.564Z,20.25
2017-09-05T01:43:52.552Z,20.35
2017-09-05T01:44:52.539Z,20.35
2017-09-05T01:45:52.525Z,20.18
2017-09-05T01:46:52.515Z,20.28
2017-09-05T01:47:52.504Z,20.30
2017-09-05T01:48:52.490Z,20.28
2017-09-05T01:49:52.471Z,20.31
2017-09-05T01:50:52.464Z,20.27
2017-09-05T01:51:52.452Z,20.21
2017-09-05T01:52:52.439Z,20.31
2017-09-05T01:53:52.426Z,20.34
2017-09-05T01:54:52.417Z,20.24
2017-09-05T01:55:52.401Z,20.21
2017-09-05T01:56:52.390Z,20.24
2017-09-05T01:57:52.381Z,20.23
2017-09-05T01:58:52.369Z,20.23
2017-09-05T01:59:52.353Z,20.23
2017-09-05T02:00:52.340Z,20.16
2017-09-05T02:01:52.327Z,20.23
2017-09-05T02:02:52.315Z,20.20
2017-09-05T02:03:52.302Z,20.15
2017-09-05T02:04:52.293Z,20.21
2017-09-05T02:05:52.273Z,20.21
2017-09-05T02:06:52.266Z,20.08
2017-09-05T02:07:52.251Z,20.23
2017-09-05T02:08:52.241Z,20.18
2017-09-05T02:09:52.231Z,20.16
2017-09-05T02:10:52.215Z,20.13
2017-09-05T02:11:52.196Z,20.16
2017-09-05T02:12:52.193Z,20.25
2017-09-05T02:13:52.181Z,20.16
2017-09-05T02:14:52.168Z,20.18
2017-09-05T02:15:52.155Z,20.20
2017-09-05T02:16:52.142Z,20.09
2017-09-05T02:17:52.129Z,20.15
2017-09-05T02:18:52.119Z,20.16
2017-09-05T02:19:52.104Z,20.18
2017-09-05T02:20:52.090Z,20.24
2017-09-05T02:21:52.076Z,20.21
2017-09-05T02:22:52.065Z,20.20
2017-09-05T02:23:52.053Z,20.18
2017-09-05T02:24:52.045Z,20.24
2017-09-05T02:25:52.027Z,20.25
2017-09-05T02:26:52.015Z,20.16
2017-09-05T02:27:52.008Z,20.20
2017-09-05T02:28:51.990Z,20.24
2017-09-05T02:29:51.983Z,20.16
2017-09-05T02:30:51.967Z,20.10
2017-09-05T02:31:51.954Z,20.16
2017-09-05T02:32:51.942Z,20.12
2017-09-05T02:33:51.928Z,20.15
2017-09-05T02:34:51.919Z,20.24
2017-09-05T02:35:51.906Z,20.20
2017-09-05T02:36:51.894Z,20.20
2017-09-05T02:37:51.877Z,20.12
2017-09-05T02:38:51.868Z,20.21
2017-09-05T02:39:51.855Z,20.16
2017-09-05T02:40:51.843Z,20.21
2017-09-05T02:41:51.829Z,20.23
2017-09-05T02:42:51.816Z,20.16
2017-09-05T02:43:51.831Z,20.12
2017-09-05T02:44:51.791Z,20.09
2017-09-05T02:45:51.779Z,20.20
2017-09-05T02:46:51.769Z,20.23
2017-09-05T02:47:51.757Z,20.23
2017-09-05T02:48:51.744Z,20.18
2017-09-05T02:49:51.731Z,20.18
2017-09-05T02:50:51.733Z,20.20
2017-09-05T02:51:51.706Z,20.09
2017-09-05T02:52:51.689Z,20.18
2017-09-05T02:53:51.680Z,20.06
2017-09-05T02:54:51.670Z,20.16
2017-09-05T02:55:51.658Z,20.23
2017-09-05T02:56:51.645Z,20.23
2017-09-05T02:57:51.626Z,20.25
2017-09-05T02:58:51.613Z,20.18
2017-09-05T02:59:51.607Z,20.20
2017-09-05T03:00:51.593Z,20.15
2017-09-05T03:01:51.579Z,20.15
2017-09-05T03:02:51.569Z,20.20
2017-09-05T03:03:51.557Z,20.20
2017-09-05T03:04:51.544Z,20.21
2017-09-05T03:05:51.531Z,20.10
2017-09-05T03:06:51.518Z,20.25
2017-09-05T03:07:51.509Z,20.21
2017-09-05T03:08:51.493Z,20.13
2017-09-05T03:09:51.482Z,20.15
2017-09-05T03:10:51.467Z,20.18
2017-09-05T03:11:51.455Z,20.18
2017-09-05T03:12:51.450Z,20.15
2017-09-05T03:13:51.434Z,20.20
2017-09-05T03:14:51.416Z,20.18
2017-09-05T03:15:51.402Z,20.24
2017-09-05T03:16:51.398Z,20.18
2017-09-05T03:17:51.382Z,20.20
2017-09-05T03:18:51.375Z,20.20
2017-09-05T03:19:51.356Z,20.08
2017-09-05T03:20:51.341Z,20.20
2017-09-05T03:21:51.330Z,20.08
2017-09-05T03:22:51.318Z,20.16
2017-09-05T03:23:51.308Z,20.23
2017-09-05T03:24:51.295Z,20.20
2017-09-05T03:25:51.284Z,20.18
2017-09-05T03:26:51.272Z,20.20
2017-09-05T03:27:51.251Z,20.18
2017-09-05T03:28:51.242Z,20.18
2017-09-05T03:29:51.231Z,20.18
2017-09-05T03:30:51.219Z,20.21
2017-09-05T03:31:51.209Z,20.20
2017-09-05T03:32:51.193Z,20.15
2017-09-05T03:33:51.179Z,20.23
2017-09-05T03:34:51.170Z,20.10
2017-09-05T03:35:51.157Z,20.18
2017-09-05T03:36:51.144Z,20.21
2017-09-05T03:37:51.131Z,20.08
2017-09-05T03:38:51.119Z,20.12
2017-09-05T03:39:51.106Z,20.23
2017-09-05T03:40:51.098Z,20.20
2017-09-05T03:41:51.077Z,20.21
2017-09-05T03:42:51.070Z,20.15
2017-09-05T03:43:51.057Z,20.16
2017-09-05T03:44:51.042Z,20.16
2017-09-05T03:45:51.029Z,20.15
2017-09-05T03:46:51.016Z,20.20
2017-09-05T03:47:51.003Z,20.16
2017-09-05T03:48:50.990Z,20.10
2017-09-05T03:49:50.983Z,20.15
2017-09-05T03:50:50.967Z,20.09
2017-09-05T03:51:50.954Z,20.06
2017-09-05T03:52:50.941Z,20.03
2017-09-05T03:53:50.929Z,20.08
2017-09-05T03:54:50.919Z,20.15
2017-09-05T03:55:50.910Z,20.02
2017-09-05T03:56:50.893Z,20.02
2017-09-05T03:57:50.881Z,20.09
2017-09-05T03:58:50.867Z,20.03
2017-09-05T03:59:50.862Z,20.15
2017-09-05T04:00:50.843Z,20.00
2017-09-05T04:01:50.829Z,20.06
2017-09-05T04:02:50.819Z,20.03
2017-09-05T04:03:50.803Z,20.06
2017-09-05T04:04:50.791Z,20.09
2017-09-05T04:05:50.782Z,20.03
2017-09-05T04:06:50.765Z,20.09
2017-09-05T04:07:50.752Z,20.03
2017-09-05T04:08:50.743Z,20.12
2017-09-05T04:09:50.734Z,20.05
2017-09-05T04:10:50.717Z,20.03
2017-09-05T04:11:50.705Z,20.09
2017-09-05T04:12:50.689Z,20.12
2017-09-05T04:13:50.679Z,20.09
2017-09-05T04:14:50.666Z,20.03
2017-09-05T04:15:50.656Z,20.10
2017-09-05T04:16:50.640Z,20.05
2017-09-05T04:17:50.625Z,20.05
2017-09-05T04:18:50.612Z,19.98
2017-09-05T04:19:50.602Z,20.05
2017-09-05T04:20:50.593Z,20.06
2017-09-05T04:21:50.578Z,20.06
2017-09-05T04:22:50.567Z,20.02
2017-09-05T04:23:50.548Z,20.10
2017-09-05T04:24:50.538Z,20.06
2017-09-05T04:25:50.526Z,20.18
2017-09-05T04:26:50.515Z,20.05
2017-09-05T04:27:50.503Z,20.06
2017-09-05T04:28:50.490Z,20.15
2017-09-05T04:29:50.473Z,20.03
2017-09-05T04:30:50.464Z,20.00
2017-09-05T04:31:50.451Z,20.08
2017-09-05T04:32:50.442Z,20.06
2017-09-05T04:33:50.422Z,20.02
2017-09-05T04:34:50.417Z,20.00
2017-09-05T04:35:50.403Z,20.02
2017-09-05T04:36:50.390Z,20.05
2017-09-05T04:37:50.380Z,20.21
2017-09-05T04:38:50.364Z,20.16
2017-09-05T04:39:50.355Z,20.16
2017-09-05T04:40:50.337Z,20.18
2017-09-05T04:41:50.322Z,20.09
2017-09-05T04:42:50.313Z,20.16
2017-09-05T04:43:50.297Z,20.10
2017-09-05T04:44:50.287Z,20.13
2017-09-05T04:45:50.279Z,20.15
2017-09-05T04:46:50.265Z,20.12
2017-09-05T04:47:50.251Z,20.21
2017-09-05T04:48:50.236Z,20.20
2017-09-05T04:49:50.226Z,20.13
2017-09-05T04:50:50.208Z,20.15
2017-09-05T04:51:50.200Z,20.12
2017-09-05T04:52:50.187Z,20.25
2017-09-05T04:53:50.170Z,20.25
2017-09-05T04:54:50.164Z,20.21
2017-09-05T04:55:50.148Z,20.24
2017-09-05T04:56:50.139Z,20.20
2017-09-05T04:57:50.123Z,20.18
2017-09-05T04:58:50.113Z,20.24
2017-09-05T04:59:50.100Z,20.16
2017-09-05T05:00:50.088Z,20.13
2017-09-05T05:01:50.078Z,20.23
2017-09-05T05:02:50.062Z,20.24
2017-09-05T05:03:50.049Z,20.20
2017-09-05T05:04:50.036Z,20.21
2017-09-05T05:05:50.018Z,20.18
2017-09-05T05:06:50.011Z,20.20
2017-09-05T05:07:49.998Z,20.23
2017-09-05T05:08:49.988Z,20.20
2017-09-05T05:09:49.972Z,20.25
2017-09-05T05:10:49.962Z,20.20
2017-09-05T05:11:49.953Z,20.16
2017-09-05T05:12:49.940Z,20.20
2017-09-05T05:13:49.925Z,20.16
2017-09-05T05:14:49.912Z,20.20
2017-09-05T05:15:49.899Z,20.24
2017-09-05T05:16:50.016Z,20.15
2017-09-05T05:17:49.873Z,20.20
2017-09-05T05:18:49.865Z,20.15
2017-09-05T05:19:49.848Z,20.31
2017-09-05T05:20:49.838Z,20.25
2017-09-05T05:21:49.825Z,20.24
2017-09-05T05:22:49.812Z,20.16
2017-09-05T05:23:49.800Z,20.18
2017-09-05T05:24:49.784Z,20.25
2017-09-05T05:25:49.778Z,20.16
2017-09-05T05:26:49.758Z,20.20
2017-09-05T05:27:49.749Z,20.24
2017-09-05T05:28:49.736Z,20.25
2017-09-05T05:29:49.724Z,20.23
2017-09-05T05:30:49.714Z,20.24
2017-09-05T05:31:49.698Z,20.25
2017-09-05T05:32:49.685Z,20.28
2017-09-05T05:33:49.672Z,20.24
2017-09-05T05:34:49.669Z,20.28
2017-09-05T05:35:49.646Z,20.28
2017-09-05T05:36:49.634Z,20.31
2017-09-05T05:37:49.621Z,20.25
2017-09-05T05:38:49.614Z,20.23
2017-09-05T05:39:49.596Z,20.31
2017-09-05T05:40:49.586Z,20.28
2017-09-05T05:41:49.570Z,20.27
2017-09-05T05:42:49.560Z,20.28
2017-09-05T05:43:49.549Z,20.34
2017-09-05T05:44:49.549Z,20.35
2017-09-05T05:45:49.528Z,20.34
2017-09-05T05:46:49.509Z,20.35
2017-09-05T05:47:49.496Z,20.33
2017-09-05T05:48:49.488Z,20.39
2017-09-05T05:49:50.117Z,20.33
2017-09-05T05:50:50.214Z,20.35
2017-09-05T05:51:49.448Z,20.35
2017-09-05T05:52:49.434Z,20.33
2017-09-05T05:53:49.423Z,20.42
2017-09-05T05:54:49.410Z,20.34
2017-09-05T05:55:49.411Z,20.39
2017-09-05T05:56:49.392Z,20.35
2017-09-05T05:57:49.373Z,20.39
2017-09-05T05:58:49.365Z,20.39
2017-09-05T05:59:49.351Z,20.43
2017-09-05T06:00:49.334Z,20.39
2017-09-05T06:01:49.322Z,20.49
2017-09-05T06:02:49.329Z,20.50
2017-09-05T06:03:49.380Z,20.41
2017-09-05T06:04:49.286Z,20.38
2017-09-05T06:05:49.271Z,20.49
2017-09-05T06:06:49.262Z,20.50
2017-09-05T06:07:49.246Z,20.53
2017-09-05T06:08:49.238Z,20.53
2017-09-05T06:09:49.226Z,20.47
2017-09-05T06:10:49.214Z,20.47
2017-09-05T06:11:49.197Z,20.51
2017-09-05T06:12:49.189Z,20.51
2017-09-05T06:13:49.176Z,20.59
2017-09-05T06:14:49.164Z,20.53
2017-09-05T06:15:49.151Z,20.56
2017-09-05T06:16:49.142Z,20.64
2017-09-05T06:17:49.126Z,20.65
2017-09-05T06:18:49.116Z,20.66
2017-09-05T06:19:49.106Z,20.65
2017-09-05T06:20:49.084Z,20.66
2017-09-05T06:21:49.074Z,20.71
2017-09-05T06:22:49.064Z,20.74
2017-09-05T06:23:49.054Z,20.72
2017-09-05T06:24:49.042Z,20.76
2017-09-05T06:25:49.024Z,20.72
2017-09-05T06:26:49.017Z,20.84
2017-09-05T06:27:49.002Z,20.76
2017-09-05T06:28:48.988Z,20.81
2017-09-05T06:29:48.976Z,20.89
2017-09-05T06:30:48.967Z,20.83
2017-09-05T06:31:48.947Z,20.84
2017-09-05T06:32:48.937Z,20.87
2017-09-05T06:33:48.921Z,20.91
2017-09-05T06:34:48.921Z,20.95
2017-09-05T06:35:48.906Z,20.91
2017-09-05T06:36:48.893Z,20.96
2017-09-05T06:37:48.874Z,20.96
2017-09-05T06:38:48.864Z,20.95
2017-09-05T06:39:48.854Z,21.04
2017-09-05T06:40:48.842Z,21.02
2017-09-05T06:41:48.832Z,20.99
2017-09-05T06:42:48.820Z,21.11
2017-09-05T06:43:48.807Z,21.14
2017-09-05T06:44:48.793Z,21.14
2017-09-05T06:45:48.780Z,21.19
2017-09-05T06:46:48.767Z,21.16
2017-09-05T06:47:48.758Z,21.11
2017-09-05T06:48:48.745Z,21.06
2017-09-05T06:49:48.732Z,21.17
2017-09-05T06:50:48.719Z,21.06
2017-09-05T06:51:48.704Z,21.19
2017-09-05T06:52:48.691Z,21.17
2017-09-05T06:53:48.678Z,21.06
2017-09-05T06:54:48.668Z,21.16
2017-09-05T06:55:48.655Z,21.16
2017-09-05T06:56:48.645Z,21.24
2017-09-05T06:57:48.640Z,21.21
2017-09-05T06:58:48.620Z,21.19
2017-09-05T06:59:48.611Z,21.29
2017-09-05T07:00:48.600Z,21.30
2017-09-05T07:01:48.587Z,21.27
2017-09-05T07:02:48.577Z,21.30
2017-09-05T07:03:48.558Z,21.32
2017-09-05T07:04:48.546Z,21.38
2017-09-05T07:05:48.538Z,21.34
2017-09-05T07:06:48.525Z,21.42
2017-09-05T07:07:48.511Z,21.41
2017-09-05T07:08:48.500Z,21.44
2017-09-05T07:09:48.487Z,21.48
2017-09-05T07:10:48.475Z,21.48
2017-09-05T07:11:48.468Z,21.63
2017-09-05T07:12:48.449Z,21.57
2017-09-05T07:13:48.443Z,21.57
2017-09-05T07:14:48.433Z,21.60
2017-09-05T07:15:48.418Z,21.64
2017-09-05T07:16:48.405Z,21.72
2017-09-05T07:17:48.395Z,21.74
2017-09-05T07:18:48.380Z,21.81
2017-09-05T07:19:48.366Z,21.75
2017-09-05T07:20:48.360Z,21.83
2017-09-05T07:21:48.344Z,21.79
2017-09-05T07:22:48.336Z,21.78
2017-09-05T07:23:48.323Z,21.81
2017-09-05T07:24:48.305Z,21.90
2017-09-05T07:25:48.299Z,21.92
2017-09-05T07:26:48.284Z,21.94
2017-09-05T07:27:48.277Z,21.98
2017-09-05T07:28:48.260Z,21.94
2017-09-05T07:29:48.245Z,21.98
2017-09-05T07:30:48.238Z,21.99
2017-09-05T07:31:48.224Z,22.02
2017-09-05T07:32:48.209Z,22.02
2017-09-05T07:33:48.199Z,22.06
2017-09-05T07:34:48.187Z,22.07
2017-09-05T07:35:48.180Z,22.07
2017-09-05T07:36:48.168Z,22.14
2017-09-05T07:37:48.155Z,22.13
2017-09-05T07:38:48.138Z,22.17
2017-09-05T07:39:48.126Z,22.19
2017-09-05T07:40:48.121Z,22.31
2017-09-05T07:41:48.106Z,22.29
2017-09-05T07:42:48.097Z,22.28
2017-09-05T07:43:48.084Z,22.37
2017-09-05T07:44:48.071Z,22.37
2017-09-05T07:45:48.061Z,22.44
2017-09-05T07:46:48.046Z,22.32
2017-09-05T07:47:48.033Z,22.41
2017-09-05T07:48:48.026Z,22.43
2017-09-05T07:49:48.014Z,22.53
2017-09-05T07:50:48.007Z,22.47
2017-09-05T07:51:47.994Z,22.56
2017-09-05T07:52:47.978Z,22.60
2017-09-05T07:53:47.962Z,22.60
2017-09-05T07:54:47.953Z,22.65
2017-09-05T07:55:47.946Z,22.62
2017-09-05T07:56:47.933Z,22.74
2017-09-05T07:57:47.917Z,22.83
2017-09-05T07:58:47.910Z,22.83
2017-09-05T07:59:47.891Z,22.82
2017-09-05T08:00:47.889Z,22.93
2017-09-05T08:01:47.876Z,22.94
2017-09-05T08:02:47.863Z,22.93
2017-09-05T08:03:47.850Z,23.02
2017-09-05T08:04:47.839Z,22.97
2017-09-05T08:05:47.826Z,22.87
2017-09-05T08:06:47.817Z,22.99
2017-09-05T08:07:47.800Z,22.99
2017-09-05T08:08:47.793Z,23.02
2017-09-05T08:09:47.779Z,23.07
2017-09-05T08:10:47.772Z,23.04
2017-09-05T08:11:47.759Z,23.14
2017-09-05T08:12:47.748Z,23.02
2017-09-05T08:13:47.736Z,23.05
2017-09-05T08:14:47.724Z,23.11
2017-09-05T08:15:47.723Z,23.14
2017-09-05T08:16:47.701Z,23.09
2017-09-05T08:17:47.689Z,23.08
2017-09-05T08:18:47.678Z,23.05
2017-09-05T08:19:47.669Z,23.02
2017-09-05T08:20:47.659Z,22.94
2017-09-05T08:21:47.643Z,22.97
2017-09-05T08:22:47.634Z,22.96
2017-09-05T08:23:47.621Z,22.78
2017-09-05T08:24:47.621Z,22.77
2017-09-05T08:25:47.600Z,22.92
2017-09-05T08:26:47.589Z,23.01
2017-09-05T08:27:47.576Z,22.94
2017-09-05T08:28:47.561Z,22.87
2017-09-05T08:29:47.554Z,22.93
2017-09-05T08:30:47.554Z,22.94
2017-09-05T08:31:47.531Z,22.94
2017-09-05T08:32:47.519Z,22.94
2017-09-05T08:33:47.506Z,22.94
2017-09-05T08:34:47.500Z,22.94
2017-09-05T08:35:47.484Z,22.94
2017-09-05T08:36:47.477Z,22.82
2017-09-05T08:37:47.458Z,22.87
2017-09-05T08:38:47.448Z,22.84
2017-09-05T08:39:47.440Z,22.87
2017-09-05T08:40:47.430Z,22.92
2017-09-05T08:41:47.422Z,22.94
2017-09-05T08:42:47.406Z,22.96
2017-09-05T08:43:47.391Z,22.96
2017-09-05T08:44:47.382Z,23.01
2017-09-05T08:45:47.372Z,22.97
2017-09-05T08:46:47.359Z,22.99
2017-09-05T08:47:47.347Z,22.99
2017-09-05T08:48:47.337Z,23.01
2017-09-05T08:49:47.327Z,23.07
2017-09-05T08:50:47.311Z,22.96
2017-09-05T08:51:47.302Z,22.89
2017-09-05T08:52:47.289Z,22.87
2017-09-05T08:53:47.283Z,22.82
2017-09-05T08:54:47.272Z,22.97
2017-09-05T08:55:47.260Z,22.94
2017-09-05T08:56:47.247Z,22.96
2017-09-05T08:57:47.234Z,22.97
2017-09-05T08:58:47.227Z,22.97
2017-09-05T08:59:47.300Z,23.05
2017-09-05T09:00:47.208Z,22.96
2017-09-05T09:01:47.184Z,22.93
2017-09-05T09:02:47.177Z,22.94
2017-09-05T09:03:47.167Z,23.02
2017-09-05T09:04:47.158Z,22.90
2017-09-05T09:05:47.145Z,22.99
2017-09-05T09:06:47.133Z,23.08
2017-09-05T09:07:47.120Z,23.05
2017-09-05T09:08:47.110Z,23.02
2017-09-05T09:09:47.105Z,23.05
2017-09-05T09:10:47.089Z,23.12
2017-09-05T09:11:47.075Z,23.12
2017-09-05T09:12:47.063Z,23.04
2017-09-05T09:13:47.050Z,23.12
2017-09-05T09:14:47.039Z,23.12
2017-09-05T09:15:47.027Z,23.22
2017-09-05T09:17:08.780Z,23.17
2017-09-05T09:17:47.008Z,23.09
2017-09-05T09:18:46.999Z,23.11
2017-09-05T09:19:46.987Z,23.09
2017-09-05T09:20:46.973Z,23.26
2017-09-05T09:21:46.961Z,23.26
2017-09-05T09:22:46.948Z,23.26
2017-09-05T09:23:46.938Z,23.19
2017-09-05T09:24:46.930Z,23.20
2017-09-05T09:25:46.916Z,23.17
2017-09-05T09:26:46.909Z,23.20
2017-09-05T09:27:46.897Z,23.31
2017-09-05T09:28:46.883Z,23.31
2017-09-05T09:29:46.868Z,23.38
2017-09-05T09:30:46.867Z,23.38
2017-09-05T09:31:46.852Z,23.39
2017-09-05T09:32:46.839Z,23.45
2017-09-05T09:33:46.826Z,23.47
2017-09-05T09:34:46.814Z,23.35
2017-09-05T09:35:46.807Z,23.43
2017-09-05T09:36:46.787Z,23.46
2017-09-05T09:37:46.781Z,23.60
2017-09-05T09:38:46.770Z,23.53
2017-09-05T09:39:46.766Z,23.52
2017-09-05T09:40:46.748Z,23.67
2017-09-05T09:41:46.735Z,23.61
2017-09-05T09:42:46.726Z,23.67
2017-09-05T09:43:46.710Z,23.83
2017-09-05T09:44:46.709Z,23.86
2017-09-05T09:45:46.691Z,23.83
2017-09-05T09:46:46.681Z,23.95
2017-09-05T09:47:46.666Z,24.04
2017-09-05T09:48:46.663Z,24.08
2017-09-05T09:49:46.649Z,24.12
2017-09-05T09:50:46.639Z,24.19
2017-09-05T09:51:46.624Z,24.22
2017-09-05T09:52:46.613Z,24.23
2017-09-05T09:53:46.603Z,24.22
2017-09-05T09:54:46.592Z,24.37
2017-09-05T09:55:46.583Z,24.32
2017-09-05T09:56:46.570Z,24.44
2017-09-05T09:57:46.564Z,24.41
2017-09-05T09:58:46.551Z,24.52
2017-09-05T09:59:46.542Z,24.47
2017-09-05T10:00:46.528Z,24.56
2017-09-05T10:01:46.519Z,24.57
2017-09-05T10:02:46.506Z,24.59
2017-09-05T10:03:46.494Z,24.73
2017-09-05T10:04:46.481Z,24.83
2017-09-05T10:05:46.471Z,24.91
2017-09-05T10:06:46.464Z,24.95
2017-09-05T10:07:46.451Z,24.92
2017-09-05T10:08:46.436Z,25.02
2017-09-05T10:09:46.423Z,25.02
2017-09-05T10:10:46.418Z,24.98
2017-09-05T10:11:46.411Z,25.00
2017-09-05T10:12:46.397Z,24.97
2017-09-05T10:13:46.383Z,25.06
2017-09-05T10:14:46.380Z,25.07
2017-09-05T10:15:46.364Z,25.17
2017-09-05T10:16:46.355Z,25.28
2017-09-05T10:17:46.345Z,25.34
2017-09-05T10:18:46.339Z,25.43
2017-09-05T10:19:46.350Z,25.52
2017-09-05T10:20:46.314Z,25.59
2017-09-05T10:21:46.304Z,25.69
2017-09-05T10:22:46.288Z,25.75
2017-09-05T10:23:46.278Z,25.79
2017-09-05T10:24:46.271Z,25.77
2017-09-05T10:25:46.259Z,25.83
2017-09-05T10:26:46.249Z,25.83
2017-09-05T10:27:46.240Z,25.87
2017-09-05T10:28:46.230Z,25.93
2017-09-05T10:29:46.217Z,25.97
2017-09-05T10:30:46.223Z,26.05
2017-09-05T10:31:46.200Z,26.12
2017-09-05T10:32:46.185Z,26.15
2017-09-05T10:33:46.175Z,26.20
2017-09-05T10:34:46.165Z,26.29
2017-09-05T10:35:46.159Z,26.22
2017-09-05T10:36:46.146Z,26.25
2017-09-05T10:37:46.133Z,26.27
2017-09-05T10:38:46.126Z,26.32
2017-09-05T10:39:46.117Z,26.31
2017-09-05T10:40:46.098Z,26.36
2017-09-05T10:41:46.098Z,26.36
2017-09-05T10:42:46.088Z,26.43
2017-09-05T10:43:46.081Z,26.54
2017-09-05T10:44:46.068Z,26.64
2017-09-05T10:45:46.059Z,26.81
2017-09-05T10:46:46.046Z,26.89
2017-09-05T10:47:46.041Z,26.95
2017-09-05T10:48:46.033Z,26.84
2017-09-05T10:49:46.011Z,26.95
2017-09-05T10:50:46.011Z,27.01
2017-09-05T10:51:46.004Z,27.06
2017-09-05T10:52:45.989Z,27.14
2017-09-05T10:53:45.979Z,27.20
2017-09-05T10:54:45.966Z,27.26
2017-09-05T10:55:45.962Z,27.32
2017-09-05T10:56:45.951Z,27.39
2017-09-05T10:57:45.938Z,27.42
2017-09-05T10:58:45.931Z,27.47
2017-09-05T10:59:45.918Z,27.58
2017-09-05T11:00:45.908Z,27.64
2017-09-05T11:01:45.899Z,27.66
2017-09-05T11:02:45.893Z,27.77
2017-09-05T11:03:45.880Z,27.74
2017-09-05T11:04:45.874Z,27.82
2017-09-05T11:05:45.861Z,27.85
2017-09-05T11:06:45.854Z,27.85
2017-09-05T11:07:45.841Z,27.98
2017-09-05T11:08:45.835Z,27.95
2017-09-05T11:09:45.822Z,27.96
2017-09-05T11:10:45.816Z,28.14
2017-09-05T11:11:45.810Z,28.14
2017-09-05T11:12:45.796Z,28.23
2017-09-05T11:13:45.780Z,28.31
2017-09-05T11:14:45.775Z,28.26
2017-09-05T11:15:45.767Z,28.31
2017-09-05T11:16:45.756Z,28.31
2017-09-05T11:17:45.746Z,28.46
2017-09-05T11:18:45.739Z,28.33
2017-09-05T11:19:45.729Z,28.36
2017-09-05T11:20:45.722Z,28.53
2017-09-05T11:21:45.713Z,28.50
2017-09-05T11:22:45.710Z,28.53
2017-09-05T11:23:45.691Z,28.60
2017-09-05T11:24:45.678Z,28.77
2017-09-05T11:25:45.668Z,28.81
2017-09-05T11:26:45.670Z,28.84
2017-09-05T11:27:45.662Z,28.93
2017-09-05T11:28:45.652Z,28.97
2017-09-05T11:29:45.640Z,29.03
2017-09-05T11:30:45.633Z,29.18
2017-09-05T11:31:45.620Z,29.23
2017-09-05T11:32:45.617Z,29.25
2017-09-05T11:33:45.600Z,29.28
2017-09-05T11:34:45.594Z,29.23
2017-09-05T11:35:45.582Z,29.28
2017-09-05T11:36:45.575Z,29.35
2017-09-05T11:37:45.568Z,29.37
2017-09-05T11:38:45.553Z,29.35
2017-09-05T11:39:45.548Z,29.55
2017-09-05T11:40:45.545Z,29.50
2017-09-05T11:41:45.533Z,29.47
2017-09-05T11:42:45.520Z,29.55
2017-09-05T11:43:45.518Z,29.56
2017-09-05T11:44:45.511Z,29.63
2017-09-05T11:45:45.498Z,29.70
2017-09-05T11:46:45.491Z,29.68
2017-09-05T11:47:45.482Z,29.75
2017-09-05T11:48:45.476Z,29.78
2017-09-05T11:49:45.463Z,29.75
2017-09-05T11:50:45.450Z,29.75
2017-09-05T11:51:45.445Z,29.65
2017-09-05T11:52:45.437Z,29.72
2017-09-05T11:53:45.433Z,29.75
2017-09-05T11:54:45.428Z,29.94
2017-09-05T11:55:45.411Z,29.96
2017-09-05T11:56:45.404Z,30.16
2017-09-05T11:57:45.393Z,30.15
2017-09-05T11:58:45.388Z,30.12
2017-09-05T11:59:45.375Z,30.15
2017-09-05T12:00:45.372Z,30.19
2017-09-05T12:01:45.364Z,30.11
2017-09-05T12:02:45.363Z,29.99
2017-09-05T12:03:45.342Z,30.07
2017-09-05T12:04:45.336Z,30.12
2017-09-05T12:05:45.327Z,30.12
2017-09-05T12:06:45.322Z,30.14
2017-09-05T12:07:45.308Z,30.14
2017-09-05T12:08:45.304Z,30.11
2017-09-05T12:09:45.291Z,30.31
2017-09-05T12:10:45.292Z,30.37
2017-09-05T12:11:45.278Z,30.47
2017-09-05T12:12:45.267Z,30.54
2017-09-05T12:13:45.258Z,30.61
2017-09-05T12:14:45.253Z,30.75
2017-09-05T12:15:45.244Z,30.76
2017-09-05T12:16:45.240Z,30.91
2017-09-05T12:17:45.239Z,30.99
2017-09-05T12:18:45.221Z,31.09
2017-09-05T12:19:45.212Z,31.21
2017-09-05T12:20:45.209Z,31.40
2017-09-05T12:21:45.196Z,31.38
2017-09-05T12:22:45.190Z,31.35
2017-09-05T12:23:45.177Z,31.33
2017-09-05T12:24:45.173Z,31.39
2017-09-05T12:25:45.163Z,31.35
2017-09-05T12:26:45.157Z,31.28
2017-09-05T12:27:45.151Z,31.36
2017-09-05T12:28:45.145Z,31.42
2017-09-05T12:29:45.132Z,31.39
2017-09-05T12:30:45.122Z,31.28
2017-09-05T12:31:45.119Z,31.28
2017-09-05T12:32:45.110Z,31.33
2017-09-05T12:33:45.101Z,31.53
2017-09-05T12:34:45.097Z,31.61
2017-09-05T12:35:45.084Z,31.60
2017-09-05T12:36:45.081Z,31.61
2017-09-05T12:37:45.069Z,31.57
2017-09-05T12:38:45.062Z,31.48
2017-09-05T12:39:45.056Z,31.30
2017-09-05T12:40:45.048Z,31.40
2017-09-05T12:41:45.039Z,31.45
2017-09-05T12:42:45.036Z,31.46
2017-09-05T12:43:45.026Z,31.35
2017-09-05T12:44:45.017Z,31.42
2017-09-05T12:45:45.015Z,31.42
2017-09-05T12:46:45.010Z,31.43
2017-09-05T12:47:44.995Z,31.46
2017-09-05T12:48:44.988Z,31.49
2017-09-05T12:49:44.978Z,31.33
2017-09-05T12:50:44.973Z,31.40
2017-09-05T12:51:44.966Z,31.38
2017-09-05T12:52:44.960Z,31.43